createdAt,value
2018-04-01T00:02:15.344Z,90.40
2018-04-01T00:04:42.380Z,90.50
2018-04-01T00:07:09.411Z,90.40
2018-04-01T00:09:36.447Z,90.40
2018-04-01T00:12:03.474Z,90.50
2018-04-01T00:14:30.497Z,90.60
2018-04-01T00:16:57.539Z,90.70
2018-04-01T00:19:24.583Z,90.70
2018-04-01T00:21:51.680Z,90.60
2018-04-01T00:24:18.680Z,90.60
2018-04-01T00:26:45.731Z,90.60
2018-04-01T00:29:12.760Z,90.90
2018-04-01T00:31:39.779Z,90.60
2018-04-01T00:34:06.804Z,90.60
2018-04-01T00:36:34.608Z,90.60
2018-04-01T00:39:01.623Z,90.60
2018-04-01T00:41:28.651Z,90.70
2018-04-01T00:43:55.673Z,90.80
2018-04-01T00:46:22.674Z,90.70
2018-04-01T00:48:49.731Z,90.80
2018-04-01T00:51:16.761Z,90.80
2018-04-01T00:53:44.532Z,90.90
2018-04-01T00:56:11.566Z,90.90
2018-04-01T00:58:38.600Z,90.90
2018-04-01T01:01:05.636Z,90.90
2018-04-01T01:03:33.241Z,90.90
2018-04-01T01:06:00.967Z,91.00
2018-04-01T01:08:27.986Z,91.00
2018-04-01T01:10:55.023Z,91.10
2018-04-01T01:13:22.027Z,91.10
2018-04-01T01:15:49.833Z,91.00
2018-04-01T01:18:16.863Z,91.00
2018-04-01T01:20:45.477Z,91.10
2018-04-01T01:23:12.521Z,91.10
2018-04-01T01:25:39.571Z,91.30
2018-04-01T01:28:06.578Z,91.40
2018-04-01T01:30:33.606Z,91.40
2018-04-01T01:33:01.416Z,91.30
2018-04-01T01:35:28.486Z,91.30
2018-04-01T01:37:55.531Z,91.30
2018-04-01T01:40:22.554Z,91.30
2018-04-01T01:42:49.640Z,91.20
2018-04-01T01:45:16.654Z,91.20
2018-04-01T01:47:43.664Z,91.20
2018-04-01T01:50:10.737Z,91.10
2018-04-01T01:52:37.753Z,91.20
2018-04-01T01:55:04.777Z,91.20
2018-04-01T01:57:31.800Z,91.30
2018-04-01T01:59:58.890Z,91.30
2018-04-01T02:02:26.676Z,91.70
2018-04-01T02:04:53.693Z,91.70
2018-04-01T02:07:21.490Z,91.80
2018-04-01T02:09:48.581Z,91.80
2018-04-01T02:12:15.648Z,91.80
2018-04-01T02:14:43.440Z,91.90
2018-04-01T02:17:10.458Z,91.80
2018-04-01T02:19:37.480Z,91.90
2018-04-01T02:22:04.529Z,92.00
2018-04-01T02:24:31.558Z,92.00
2018-04-01T02:26:58.644Z,92.00
2018-04-01T02:29:25.680Z,92.10
2018-04-01T02:31:52.717Z,92.20
2018-04-01T02:34:19.757Z,92.20
2018-04-01T02:36:46.794Z,92.10
2018-04-01T02:39:13.824Z,92.00
2018-04-01T02:41:40.850Z,91.90
2018-04-01T02:44:07.869Z,92.00
2018-04-01T02:46:35.662Z,92.10
2018-04-01T02:49:02.675Z,92.00
2018-04-01T02:51:29.694Z,92.00
2018-04-01T02:53:56.720Z,92.00
2018-04-01T02:56:23.748Z,92.00
2018-04-01T02:58:50.776Z,92.00
2018-04-01T03:01:18.567Z,92.00
2018-04-01T03:03:45.571Z,91.90
2018-04-01T03:06:12.588Z,91.90
2018-04-01T03:08:40.191Z,91.90
2018-04-01T03:11:08.376Z,92.10
2018-04-01T03:13:35.400Z,92.10
2018-04-01T03:16:02.417Z,92.00
2018-04-01T03:18:29.449Z,91.90
2018-04-01T03:20:56.474Z,91.90
2018-04-01T03:23:23.500Z,91.90
2018-04-01T03:25:51.299Z,91.60
2018-04-01T03:28:18.294Z,91.60
2018-04-01T03:30:45.316Z,91.50
2018-04-01T03:33:12.338Z,91.50
2018-04-01T03:35:39.384Z,91.50
2018-04-01T03:38:06.421Z,91.60
2018-04-01T03:40:33.428Z,91.50
2018-04-01T03:43:01.224Z,91.90
2018-04-01T03:45:28.237Z,91.60
2018-04-01T03:47:55.286Z,91.50
2018-04-01T03:50:22.303Z,91.40
2018-04-01T03:52:49.357Z,91.70
2018-04-01T03:55:16.386Z,91.30
2018-04-01T03:57:43.408Z,91.30
2018-04-01T04:00:10.438Z,91.30
2018-04-01T04:02:38.221Z,91.30
2018-04-01T04:05:05.225Z,91.30
2018-04-01T04:07:32.257Z,91.30
2018-04-01T04:09:59.331Z,91.30
2018-04-01T04:12:26.343Z,91.20
2018-04-01T04:14:53.399Z,91.20
2018-04-01T04:17:20.432Z,91.30
2018-04-01T04:19:47.451Z,91.30
2018-04-01T04:22:14.557Z,91.30
2018-04-01T04:24:41.601Z,91.20
2018-04-01T04:27:08.619Z,91.20
2018-04-01T04:29:35.642Z,91.20
2018-04-01T04:32:02.653Z,91.20
2018-04-01T04:34:30.433Z,91.20
2018-04-01T04:36:57.467Z,91.20
2018-04-01T04:39:24.528Z,91.10
2018-04-01T04:41:51.616Z,91.00
2018-04-01T04:44:18.706Z,91.10
2018-04-01T04:46:46.550Z,91.00
2018-04-01T04:49:13.566Z,91.00
2018-04-01T04:51:40.595Z,90.90
2018-04-01T04:54:07.622Z,90.80
2018-04-01T04:56:34.641Z,90.90
2018-04-01T04:59:01.664Z,90.90
2018-04-01T05:01:28.704Z,91.00
2018-04-01T05:03:55.715Z,91.10
2018-04-01T05:06:22.735Z,91.00
2018-04-01T05:08:49.766Z,91.00
2018-04-01T05:11:16.798Z,91.00
2018-04-01T05:13:43.819Z,91.10
2018-04-01T05:16:10.824Z,91.10
2018-04-01T05:18:37.834Z,91.10
2018-04-01T05:21:04.856Z,91.10
2018-04-01T05:23:31.878Z,91.20
2018-04-01T05:25:59.684Z,91.10
2018-04-01T05:28:26.710Z,91.10
2018-04-01T05:30:53.715Z,91.20
2018-04-01T05:33:20.735Z,91.10
2018-04-01T05:35:47.753Z,91.10
2018-04-01T05:38:14.776Z,91.20
2018-04-01T05:40:42.554Z,91.20
2018-04-01T05:43:09.571Z,91.20
2018-04-01T05:45:36.615Z,91.20
2018-04-01T05:48:03.668Z,91.20
2018-04-01T05:50:30.795Z,91.20
2018-04-01T05:52:58.904Z,91.20
2018-04-01T05:55:26.686Z,91.30
2018-04-01T05:57:53.840Z,91.30
2018-04-01T06:00:20.854Z,91.40
2018-04-01T06:02:48.645Z,91.50
2018-04-01T06:05:15.702Z,91.50
2018-04-01T06:07:42.724Z,91.50
2018-04-01T06:10:10.519Z,91.60
2018-04-01T06:12:37.539Z,91.60
2018-04-01T06:15:04.559Z,91.60
2018-04-01T06:17:32.351Z,91.70
2018-04-01T06:19:59.432Z,91.70
2018-04-01T06:22:26.477Z,91.60
2018-04-01T06:24:53.519Z,91.60
2018-04-01T06:27:20.526Z,91.70
2018-04-01T06:29:47.546Z,91.60
2018-04-01T06:32:15.774Z,92.00
2018-04-01T06:34:42.812Z,91.60
2018-04-01T06:37:09.838Z,91.60
2018-04-01T06:39:36.859Z,91.60
2018-04-01T06:42:03.893Z,91.60
2018-04-01T06:44:30.910Z,91.50
2018-04-01T06:46:57.924Z,91.50
2018-04-01T06:49:25.702Z,91.70
2018-04-01T06:51:52.726Z,91.60
2018-04-01T06:54:20.513Z,91.40
2018-04-01T06:56:47.565Z,91.40
2018-04-01T06:59:14.591Z,91.30
2018-04-01T07:01:42.392Z,91.20
2018-04-01T07:04:09.410Z,91.20
2018-04-01T07:06:36.451Z,91.30
2018-04-01T07:09:03.486Z,91.20
2018-04-01T07:11:30.657Z,91.20
2018-04-01T07:13:57.715Z,91.20
2018-04-01T07:16:24.731Z,91.10
2018-04-01T07:18:51.759Z,91.10
2018-04-01T07:21:18.779Z,91.10
2018-04-01T07:23:45.857Z,91.00
2018-04-01T07:26:12.931Z,91.10
2018-04-01T07:28:40.726Z,91.00
2018-04-01T07:31:07.793Z,90.90
2018-04-01T07:33:34.799Z,91.10
2018-04-01T07:36:01.823Z,91.00
2018-04-01T07:38:28.869Z,90.90
2018-04-01T07:40:56.664Z,90.80
2018-04-01T07:43:23.682Z,90.70
2018-04-01T07:45:51.453Z,90.40
2018-04-01T07:48:18.488Z,90.40
2018-04-01T07:50:45.502Z,90.50
2018-04-01T07:53:12.512Z,90.40
2018-04-01T07:55:39.522Z,90.60
2018-04-01T07:58:06.538Z,90.20
2018-04-01T08:00:33.540Z,89.70
2018-04-01T08:03:00.577Z,90.10
2018-04-01T08:05:27.595Z,90.10
2018-04-01T08:07:54.624Z,90.20
2018-04-01T08:10:21.635Z,90.30
2018-04-01T08:12:48.668Z,90.20
2018-04-01T08:15:15.715Z,89.60
2018-04-01T08:17:42.770Z,88.90
2018-04-01T08:20:10.539Z,88.80
2018-04-01T08:22:37.556Z,88.70
2018-04-01T08:25:06.045Z,88.20
2018-04-01T08:27:33.064Z,88.80
2018-04-01T08:30:00.078Z,87.80
2018-04-01T08:32:27.123Z,87.10
2018-04-01T08:34:54.160Z,86.30
2018-04-01T08:37:22.336Z,87.30
2018-04-01T08:39:50.569Z,86.90
2018-04-01T08:42:17.616Z,86.40
2018-04-01T08:44:44.631Z,87.20
2018-04-01T08:47:11.650Z,86.20
2018-04-01T08:49:38.668Z,87.20
2018-04-01T08:52:06.448Z,86.00
2018-04-01T08:54:33.474Z,85.90
2018-04-01T08:57:00.494Z,86.20
2018-04-01T08:59:29.029Z,84.90
2018-04-01T09:01:56.087Z,84.90
2018-04-01T09:04:23.120Z,85.20
2018-04-01T09:06:50.144Z,84.50
2018-04-01T09:09:17.272Z,84.20
2018-04-01T09:11:45.115Z,83.90
2018-04-01T09:14:12.581Z,83.80
2018-04-01T09:16:39.678Z,83.10
2018-04-01T09:19:06.698Z,83.90
2018-04-01T09:21:33.716Z,84.00
2018-04-01T09:24:00.742Z,83.90
2018-04-01T09:26:28.013Z,82.10
2018-04-01T09:28:55.168Z,81.60
2018-04-01T09:31:22.200Z,81.50
2018-04-01T09:33:49.228Z,82.20
2018-04-01T09:36:16.244Z,80.70
2018-04-01T09:38:44.105Z,80.40
2018-04-01T09:41:11.895Z,80.20
2018-04-01T09:43:38.926Z,80.20
2018-04-01T09:46:05.972Z,79.90
2018-04-01T09:48:32.990Z,79.80
2018-04-01T09:51:00.019Z,79.90
2018-04-01T09:53:27.049Z,78.00
2018-04-01T09:55:54.093Z,77.90
2018-04-01T09:58:21.115Z,77.50
2018-04-01T10:00:58.812Z,76.40
2018-04-01T10:03:26.321Z,77.00
2018-04-01T10:05:53.852Z,76.90
2018-04-01T10:08:21.374Z,77.80
2018-04-01T10:10:49.756Z,78.50
2018-04-01T10:13:17.278Z,78.40
2018-04-01T10:15:44.797Z,78.60
2018-04-01T10:18:12.310Z,78.40
2018-04-01T10:20:39.814Z,77.90
2018-04-01T10:23:07.327Z,77.10
2018-04-01T10:25:34.836Z,76.30
2018-04-01T10:28:02.362Z,77.30
2018-04-01T10:30:29.868Z,76.40
2018-04-01T10:32:57.391Z,74.10
2018-04-01T10:35:24.902Z,74.60
2018-04-01T10:37:52.397Z,73.10
2018-04-01T10:40:19.956Z,73.90
2018-04-01T10:42:48.235Z,74.50
2018-04-01T10:45:15.745Z,74.50
2018-04-01T10:47:43.446Z,73.00
2018-04-01T10:50:10.972Z,73.40
2018-04-01T10:52:38.479Z,73.40
2018-04-01T10:55:05.502Z,73.10
2018-04-01T10:57:33.287Z,74.10
2018-04-01T11:00:00.330Z,74.10
2018-04-01T11:02:28.328Z,72.40
2018-04-01T11:04:55.346Z,72.10
2018-04-01T11:07:22.367Z,70.40
2018-04-01T11:09:49.539Z,70.70
2018-04-01T11:12:16.563Z,70.70
2018-04-01T11:14:43.633Z,71.40
2018-04-01T11:17:10.603Z,70.10
2018-04-01T11:19:37.680Z,70.30
2018-04-01T11:22:04.705Z,69.80
2018-04-01T11:24:33.314Z,68.50
2018-04-01T11:27:00.332Z,68.40
2018-04-01T11:29:27.342Z,67.50
2018-04-01T11:31:54.347Z,68.10
2018-04-01T11:34:22.190Z,67.70
2018-04-01T11:36:50.147Z,66.10
2018-04-01T11:39:17.165Z,67.20
2018-04-01T11:41:44.196Z,66.50
2018-04-01T11:44:11.982Z,65.80
2018-04-01T11:46:39.766Z,66.50
2018-04-01T11:49:06.803Z,66.50
2018-04-01T11:51:33.852Z,64.90
2018-04-01T11:54:00.893Z,64.80
2018-04-01T11:56:27.911Z,64.80
2018-04-01T11:58:56.688Z,65.70
2018-04-01T12:01:26.667Z,65.70
2018-04-01T12:03:54.232Z,66.00
2018-04-01T12:06:21.252Z,65.50
2018-04-01T12:08:48.289Z,64.80
2018-04-01T12:11:16.065Z,65.30
2018-04-01T12:13:43.102Z,65.40
2018-04-01T12:16:10.107Z,65.10
2018-04-01T12:18:37.200Z,66.10
2018-04-01T12:21:04.240Z,65.00
2018-04-01T12:23:31.254Z,62.90
2018-04-01T12:25:58.506Z,62.40
2018-04-01T12:28:25.527Z,62.80
2018-04-01T12:30:52.554Z,63.40
2018-04-01T12:33:19.586Z,62.50
2018-04-01T12:35:46.608Z,60.20
2018-04-01T12:38:14.406Z,61.40
2018-04-01T12:40:41.446Z,61.40
2018-04-01T12:43:08.469Z,61.70
2018-04-01T12:45:35.496Z,62.40
2018-04-01T12:48:02.528Z,62.20
2018-04-01T12:50:29.568Z,60.80
2018-04-01T12:52:56.588Z,60.10
2018-04-01T12:55:23.636Z,59.50
2018-04-01T12:57:50.668Z,59.00
2018-04-01T13:00:17.726Z,57.70
2018-04-01T13:02:45.359Z,57.40
2018-04-01T13:05:13.156Z,57.60
2018-04-01T13:07:40.188Z,57.60
2018-04-01T13:10:07.208Z,57.30
2018-04-01T13:12:34.227Z,55.10
2018-04-01T13:15:01.272Z,52.80
2018-04-01T13:17:28.302Z,52.40
2018-04-01T13:19:55.315Z,50.90
2018-04-01T13:22:23.107Z,48.40
2018-04-01T13:24:50.452Z,48.30
2018-04-01T13:27:17.481Z,48.80
2018-04-01T13:29:44.506Z,49.80
2018-04-01T13:32:11.593Z,46.70
2018-04-01T13:34:38.616Z,47.10
2018-04-01T13:37:06.413Z,48.00
2018-04-01T13:39:33.438Z,47.80
2018-04-01T13:42:00.454Z,49.30
2018-04-01T13:44:27.492Z,50.30
2018-04-01T13:46:54.518Z,51.30
2018-04-01T13:49:21.539Z,50.00
2018-04-01T13:51:48.559Z,46.60
2018-04-01T13:54:16.342Z,48.60
2018-04-01T13:56:43.379Z,48.50
2018-04-01T13:59:10.385Z,48.30
2018-04-01T14:01:37.416Z,45.90
2018-04-01T14:04:04.464Z,45.20
2018-04-01T14:06:31.491Z,46.10
2018-04-01T14:08:58.555Z,47.40
2018-04-01T14:11:25.600Z,48.00
2018-04-01T14:13:52.632Z,48.00
2018-04-01T14:16:19.675Z,47.30
2018-04-01T14:18:46.709Z,47.70
2018-04-01T14:21:14.605Z,48.70
2018-04-01T14:23:41.633Z,49.10
2018-04-01T14:26:08.686Z,46.90
2018-04-01T14:28:35.732Z,46.70
2018-04-01T14:31:02.766Z,48.20
2018-04-01T14:33:29.907Z,47.80
2018-04-01T14:35:57.035Z,47.90
2018-04-01T14:38:24.077Z,47.80
2018-04-01T14:40:51.086Z,47.20
2018-04-01T14:43:18.141Z,47.10
2018-04-01T14:45:45.187Z,46.00
2018-04-01T14:48:12.216Z,46.40
2018-04-01T14:50:39.246Z,45.20
2018-04-01T14:53:06.269Z,45.10
2018-04-01T14:55:34.057Z,45.60
2018-04-01T14:58:02.159Z,45.60
2018-04-01T15:00:29.180Z,45.80
2018-04-01T15:02:56.255Z,47.60
2018-04-01T15:05:23.264Z,48.30
2018-04-01T15:07:50.301Z,49.40
2018-04-01T15:10:17.328Z,50.20
2018-04-01T15:12:44.368Z,48.10
2018-04-01T15:15:11.383Z,47.60
2018-04-01T15:17:38.469Z,47.80
2018-04-01T15:20:06.682Z,47.80
2018-04-01T15:22:33.703Z,48.20
2018-04-01T15:25:01.496Z,46.60
2018-04-01T15:27:28.527Z,46.50
2018-04-01T15:29:55.552Z,46.90
2018-04-01T15:32:22.601Z,47.00
2018-04-01T15:34:49.639Z,46.10
2018-04-01T15:37:17.626Z,45.90
2018-04-01T15:39:46.200Z,46.80
2018-04-01T15:42:13.255Z,46.70
2018-04-01T15:44:41.115Z,46.40
2018-04-01T15:47:09.483Z,46.70
2018-04-01T15:49:37.262Z,46.60
2018-04-01T15:52:05.196Z,47.00
2018-04-01T15:54:33.019Z,46.40
2018-04-01T15:57:01.250Z,46.60
2018-04-01T15:59:29.100Z,47.20
2018-04-01T16:01:56.817Z,47.00
2018-04-01T16:04:23.891Z,47.70
2018-04-01T16:06:50.937Z,47.00
2018-04-01T16:09:18.002Z,47.20
2018-04-01T16:11:46.854Z,47.30
2018-04-01T16:14:13.882Z,48.70
2018-04-01T16:16:40.903Z,49.30
2018-04-01T16:19:07.937Z,50.00
2018-04-01T16:21:34.963Z,49.60
2018-04-01T16:24:02.056Z,50.10
2018-04-01T16:26:29.836Z,49.90
2018-04-01T16:28:57.636Z,49.20
2018-04-01T16:31:24.644Z,49.20
2018-04-01T16:33:51.672Z,49.50
2018-04-01T16:36:19.484Z,49.70
2018-04-01T16:38:46.549Z,49.70
2018-04-01T16:41:14.065Z,50.40
2018-04-01T16:43:41.399Z,50.00
2018-04-01T16:46:09.178Z,51.20
2018-04-01T16:48:36.220Z,51.20
2018-04-01T16:51:03.260Z,50.30
2018-04-01T16:53:31.056Z,49.30
2018-04-01T16:55:58.145Z,49.30
2018-04-01T16:58:25.172Z,50.30
2018-04-01T17:00:52.281Z,50.80
2018-04-01T17:03:19.348Z,51.60
2018-04-01T17:05:46.398Z,51.40
2018-04-01T17:08:13.502Z,50.80
2018-04-01T17:10:40.529Z,49.80
2018-04-01T17:13:07.546Z,50.00
2018-04-01T17:15:34.606Z,50.60
2018-04-01T17:18:01.659Z,51.00
2018-04-01T17:20:28.701Z,51.20
2018-04-01T17:22:55.732Z,51.20
2018-04-01T17:25:22.782Z,51.80
2018-04-01T17:27:49.883Z,52.00
2018-04-01T17:30:16.986Z,52.00
2018-04-01T17:32:44.023Z,52.80
2018-04-01T17:35:11.093Z,53.20
2018-04-01T17:37:38.122Z,53.50
2018-04-01T17:40:05.161Z,54.30
2018-04-01T17:42:32.180Z,55.40
2018-04-01T17:45:00.000Z,56.30
2018-04-01T17:47:27.060Z,56.30
2018-04-01T17:49:54.123Z,56.90
2018-04-01T17:52:21.601Z,57.40
2018-04-01T17:54:49.421Z,57.40
2018-04-01T17:57:15.835Z,57.70
2018-04-01T17:59:43.035Z,60.80
2018-04-01T18:02:10.819Z,60.30
2018-04-01T18:04:37.885Z,60.30
2018-04-01T18:07:04.924Z,61.70
2018-04-01T18:09:32.047Z,60.20
2018-04-01T18:11:59.897Z,59.30
2018-04-01T18:14:26.921Z,59.40
2018-04-01T18:16:53.986Z,59.90
2018-04-01T18:19:21.013Z,61.00
2018-04-01T18:21:48.048Z,62.40
2018-04-01T18:24:15.120Z,62.30
2018-04-01T18:26:42.157Z,62.40
2018-04-01T18:29:09.186Z,63.10
2018-04-01T18:31:36.215Z,63.70
2018-04-01T18:34:04.235Z,64.00
2018-04-01T18:36:31.259Z,64.30
2018-04-01T18:38:58.311Z,64.10
2018-04-01T18:41:26.129Z,65.40
2018-04-01T18:43:53.182Z,65.40
2018-04-01T18:46:20.238Z,66.10
2018-04-01T18:48:47.259Z,66.40
2018-04-01T18:51:15.423Z,66.70
2018-04-01T18:53:43.216Z,66.70
2018-04-01T18:56:10.265Z,66.60
2018-04-01T18:58:37.298Z,66.80
2018-04-01T19:01:04.400Z,66.80
2018-04-01T19:03:32.119Z,66.80
2018-04-01T19:05:59.224Z,66.90
2018-04-01T19:08:27.088Z,67.40
2018-04-01T19:10:54.122Z,67.30
2018-04-01T19:13:21.182Z,67.70
2018-04-01T19:15:48.222Z,67.90
2018-04-01T19:18:15.762Z,68.50
2018-04-01T19:20:44.076Z,67.80
2018-04-01T19:23:12.361Z,68.00
2018-04-01T19:25:39.895Z,68.00
2018-04-01T19:28:07.443Z,67.50
2018-04-01T19:30:34.962Z,67.70
2018-04-01T19:33:02.500Z,68.20
2018-04-01T19:35:30.803Z,67.90
2018-04-01T19:37:58.406Z,68.00
2018-04-01T19:40:25.914Z,68.10
2018-04-01T19:42:53.432Z,67.80
2018-04-01T19:45:20.945Z,67.90
2018-04-01T19:47:48.472Z,68.10
2018-04-01T19:50:16.777Z,68.20
2018-04-01T19:52:44.363Z,68.30
2018-04-01T19:55:11.857Z,68.50
2018-04-01T19:57:39.433Z,68.30
2018-04-01T20:00:06.951Z,68.60
2018-04-01T20:02:35.997Z,69.00
2018-04-01T20:05:03.577Z,68.90
2018-04-01T20:07:31.092Z,69.00
2018-04-01T20:09:58.657Z,69.00
2018-04-01T20:12:26.232Z,69.00
2018-04-01T20:14:53.793Z,69.30
2018-04-01T20:17:21.365Z,69.60
2018-04-01T20:19:48.891Z,70.00
2018-04-01T20:22:17.167Z,70.00
2018-04-01T20:24:44.700Z,70.00
2018-04-01T20:27:13.038Z,70.40
2018-04-01T20:29:40.570Z,70.40
2018-04-01T20:32:08.077Z,70.70
2018-04-01T20:34:35.608Z,71.00
2018-04-01T20:37:03.704Z,71.00
2018-04-01T20:39:31.273Z,71.40
2018-04-01T20:41:58.839Z,71.70
2018-04-01T20:44:26.358Z,71.90
2018-04-01T20:46:53.901Z,72.30
2018-04-01T20:49:21.449Z,72.40
2018-04-01T20:51:48.966Z,72.70
2018-04-01T20:54:16.506Z,73.20
2018-04-01T20:56:44.034Z,73.00
2018-04-01T20:59:12.013Z,73.70
2018-04-01T21:01:39.614Z,73.60
2018-04-01T21:04:07.186Z,74.00
2018-04-01T21:06:34.716Z,74.30
2018-04-01T21:09:02.347Z,74.80
2018-04-01T21:11:29.904Z,75.20
2018-04-01T21:13:57.448Z,75.30
2018-04-01T21:16:25.076Z,75.70
2018-04-01T21:18:53.517Z,76.20
2018-04-01T21:21:22.772Z,76.10
2018-04-01T21:23:51.079Z,77.20
2018-04-01T21:26:18.618Z,77.20
2018-04-01T21:28:46.123Z,77.00
2018-04-01T21:31:13.645Z,76.80
2018-04-01T21:33:41.207Z,77.40
2018-04-01T21:36:08.800Z,77.50
2018-04-01T21:38:36.314Z,77.80
2018-04-01T21:41:03.839Z,78.30
2018-04-01T21:43:31.380Z,78.60
2018-04-01T21:45:58.967Z,78.00
2018-04-01T21:48:27.283Z,78.80
2018-04-01T21:50:54.808Z,78.80
2018-04-01T21:53:22.404Z,78.70
2018-04-01T21:55:49.920Z,78.20
2018-04-01T21:58:17.457Z,78.20
2018-04-01T22:00:44.978Z,78.10
2018-04-01T22:03:12.500Z,78.00
2018-04-01T22:05:40.031Z,78.10
2018-04-01T22:08:07.537Z,78.10
2018-04-01T22:10:35.066Z,78.50
2018-04-01T22:13:03.533Z,78.80
2018-04-01T22:15:31.043Z,79.80
2018-04-01T22:17:58.636Z,79.20
2018-04-01T22:20:26.135Z,79.20
2018-04-01T22:23:05.377Z,79.20
2018-04-01T22:25:32.875Z,79.00
2018-04-01T22:28:00.403Z,79.60
2018-04-01T22:30:27.935Z,79.90
2018-04-01T22:32:56.242Z,80.50
2018-04-01T22:35:23.767Z,80.50
2018-04-01T22:37:51.291Z,80.30
2018-04-01T22:40:18.865Z,80.80
2018-04-01T22:42:46.387Z,80.40
2018-04-01T22:45:13.909Z,80.40
2018-04-01T22:47:41.430Z,80.60
2018-04-01T22:50:08.956Z,80.70
2018-04-01T22:52:36.488Z,80.70
2018-04-01T22:55:04.792Z,81.40
2018-04-01T22:57:32.300Z,81.40
2018-04-01T22:59:59.811Z,81.60
2018-04-01T23:02:27.328Z,81.80
2018-04-01T23:04:55.604Z,81.70
2018-04-01T23:07:23.131Z,81.60
2018-04-01T23:09:50.650Z,81.60
2018-04-01T23:12:18.181Z,81.70
2018-04-01T23:14:45.712Z,81.90
2018-04-01T23:17:13.239Z,81.90
2018-04-01T23:19:40.745Z,82.00
2018-04-01T23:22:08.290Z,82.40
2018-04-01T23:24:35.783Z,82.60
2018-04-01T23:27:03.297Z,83.10
2018-04-01T23:29:30.828Z,83.40
2018-04-01T23:31:58.353Z,83.60
2018-04-01T23:34:26.636Z,83.90
2018-04-01T23:36:54.161Z,83.70
2018-04-01T23:39:21.684Z,83.90
2018-04-01T23:41:49.188Z,85.10
2018-04-01T23:44:17.473Z,85.10
2018-04-01T23:46:45.756Z,84.80
2018-04-01T23:49:14.048Z,85.20
2018-04-01T23:51:41.593Z,85.20
2018-04-01T23:54:09.876Z,85.90
2018-04-01T23:56:37.406Z,85.90
2018-04-01T23:59:05.706Z,85.70
